createdAt,value
2018-03-08T00:01:39.728Z,97451
2018-03-08T00:03:45.556Z,97473
2018-03-08T00:05:51.341Z,97458
2018-03-08T00:07:57.082Z,97461
2018-03-08T00:10:05.482Z,97449
2018-03-08T00:12:11.253Z,97470
2018-03-08T00:14:16.773Z,97460
2018-03-08T00:16:22.036Z,97469
2018-03-08T00:18:27.917Z,97460
2018-03-08T00:20:33.463Z,97476
2018-03-08T00:22:39.069Z,97478
2018-03-08T00:24:44.417Z,97482
2018-03-08T00:26:50.526Z,97467
2018-03-08T00:28:56.644Z,97477
2018-03-08T00:31:03.215Z,97489
2018-03-08T00:33:09.593Z,97485
2018-03-08T00:35:15.427Z,97480
2018-03-08T00:37:21.141Z,97487
2018-03-08T00:39:26.997Z,97484
2018-03-08T00:41:33.181Z,97468
2018-03-08T00:43:39.233Z,97494
2018-03-08T00:45:45.908Z,97496
2018-03-08T00:47:51.705Z,97480
2018-03-08T00:49:57.874Z,97495
2018-03-08T00:52:07.917Z,97479
2018-03-08T00:54:14.582Z,97484
2018-03-08T00:56:20.702Z,97484
2018-03-08T00:58:26.845Z,97510
2018-03-08T01:00:34.063Z,97496
2018-03-08T01:02:39.376Z,97497
2018-03-08T01:04:45.595Z,97478
2018-03-08T01:06:51.373Z,97483
2018-03-08T01:08:57.416Z,97498
2018-03-08T01:11:04.924Z,97480
2018-03-08T01:13:11.354Z,97513
2018-03-08T01:15:17.170Z,97495
2018-03-08T01:17:22.767Z,97495
2018-03-08T01:19:29.815Z,97497
2018-03-08T01:21:35.924Z,97493
2018-03-08T01:23:41.663Z,97501
2018-03-08T01:25:47.793Z,97509
2018-03-08T01:27:53.769Z,97503
2018-03-08T01:29:59.685Z,97518
2018-03-08T01:32:06.730Z,97531
2018-03-08T01:34:12.893Z,97526
2018-03-08T01:36:27.016Z,97506
2018-03-08T01:38:32.756Z,97517
2018-03-08T01:40:38.686Z,97524
2018-03-08T01:42:44.874Z,97516
2018-03-08T01:44:51.107Z,97518
2018-03-08T01:46:56.343Z,97532
2018-03-08T01:49:03.877Z,97511
2018-03-08T01:51:10.008Z,97511
2018-03-08T01:53:16.135Z,97504
2018-03-08T01:55:22.064Z,97519
2018-03-08T01:57:27.764Z,97518
2018-03-08T01:59:33.540Z,97521
2018-03-08T02:01:39.814Z,97504
2018-03-08T02:03:45.699Z,97518
2018-03-08T02:05:51.399Z,97515
2018-03-08T02:07:57.488Z,97526
2018-03-08T02:10:06.726Z,97521
2018-03-08T02:12:13.522Z,97526
2018-03-08T02:14:19.147Z,97525
2018-03-08T02:16:24.668Z,97521
2018-03-08T02:18:30.097Z,97520
2018-03-08T02:20:35.805Z,97525
2018-03-08T02:22:41.894Z,97519
2018-03-08T02:24:47.164Z,97527
2018-03-08T02:26:53.856Z,97520
2018-03-08T02:29:01.955Z,97523
2018-03-08T02:31:07.919Z,97527
2018-03-08T02:33:13.469Z,97531
2018-03-08T02:35:19.076Z,97537
2018-03-08T02:37:25.600Z,97529
2018-03-08T02:39:30.837Z,97535
2018-03-08T02:41:36.920Z,97541
2018-03-08T02:43:42.256Z,97548
2018-03-08T02:45:48.288Z,97564
2018-03-08T02:47:54.304Z,97561
2018-03-08T02:50:01.033Z,97566
2018-03-08T02:52:08.326Z,97551
2018-03-08T02:54:13.829Z,97561
2018-03-08T02:56:20.077Z,97564
2018-03-08T02:58:26.968Z,97559
2018-03-08T03:00:33.250Z,97581
2018-03-08T03:02:39.309Z,97573
2018-03-08T03:04:55.884Z,97574
2018-03-08T03:07:04.866Z,97589
2018-03-08T03:09:11.300Z,97589
2018-03-08T03:11:17.476Z,97572
2018-03-08T03:13:23.563Z,97621
2018-03-08T03:15:29.777Z,97592
2018-03-08T03:17:35.490Z,97603
2018-03-08T03:19:41.387Z,97617
2018-03-08T03:21:46.743Z,97616
2018-03-08T03:23:52.569Z,97645
2018-03-08T03:25:58.543Z,97597
2018-03-08T03:28:06.924Z,97629
2018-03-08T03:30:12.923Z,97621
2018-03-08T03:32:19.269Z,97633
2018-03-08T03:34:25.363Z,97614
2018-03-08T03:36:31.127Z,97614
2018-03-08T03:38:37.052Z,97610
2018-03-08T03:40:42.924Z,97615
2018-03-08T03:42:49.623Z,97622
2018-03-08T03:44:55.688Z,97612
2018-03-08T03:47:04.396Z,97613
2018-03-08T03:49:10.652Z,97628
2018-03-08T03:51:15.969Z,97617
2018-03-08T03:53:21.716Z,97629
2018-03-08T03:55:28.236Z,97623
2018-03-08T03:57:34.079Z,97628
2018-03-08T03:59:40.784Z,97657
2018-03-08T04:01:46.897Z,97644
2018-03-08T04:03:52.843Z,97629
2018-03-08T04:05:58.621Z,97634
2018-03-08T04:08:06.523Z,97652
2018-03-08T04:10:11.852Z,97640
2018-03-08T04:12:17.889Z,97629
2018-03-08T04:14:23.448Z,97631
2018-03-08T04:16:29.148Z,97654
2018-03-08T04:18:34.772Z,97651
2018-03-08T04:20:40.622Z,97629
2018-03-08T04:22:46.740Z,97644
2018-03-08T04:24:52.021Z,97635
2018-03-08T04:26:58.144Z,97652
2018-03-08T04:29:05.964Z,97648
2018-03-08T04:31:11.420Z,97635
2018-03-08T04:33:17.452Z,97654
2018-03-08T04:35:23.264Z,97651
2018-03-08T04:37:29.264Z,97650
2018-03-08T04:39:34.560Z,97673
2018-03-08T04:41:40.710Z,97666
2018-03-08T04:43:46.714Z,97653
2018-03-08T04:45:52.136Z,97668
2018-03-08T04:47:58.001Z,97660
2018-03-08T04:50:07.030Z,97665
2018-03-08T04:52:12.418Z,97661
2018-03-08T04:54:19.142Z,97670
2018-03-08T04:56:25.533Z,97668
2018-03-08T04:58:31.104Z,97670
2018-03-08T05:00:36.757Z,97679
2018-03-08T05:02:42.161Z,97674
2018-03-08T05:04:47.511Z,97674
2018-03-08T05:06:52.912Z,97686
2018-03-08T05:08:58.640Z,97666
2018-03-08T05:11:06.803Z,97682
2018-03-08T05:13:12.504Z,97684
2018-03-08T05:15:17.831Z,97680
2018-03-08T05:17:23.430Z,97690
2018-03-08T05:19:29.422Z,97679
2018-03-08T05:21:34.597Z,97690
2018-03-08T05:23:40.723Z,97696
2018-03-08T05:25:46.368Z,97691
2018-03-08T05:27:51.821Z,97690
2018-03-08T05:29:57.878Z,97692
2018-03-08T05:32:06.516Z,97691
2018-03-08T05:34:12.642Z,97704
2018-03-08T05:36:18.123Z,97722
2018-03-08T05:38:24.768Z,97704
2018-03-08T05:40:30.022Z,97730
2018-03-08T05:42:35.704Z,97712
2018-03-08T05:44:40.948Z,97746
2018-03-08T05:46:46.305Z,97712
2018-03-08T05:48:52.329Z,97732
2018-03-08T05:51:02.828Z,97757
2018-03-08T05:53:08.783Z,97735
2018-03-08T05:55:14.188Z,97742
2018-03-08T05:57:21.776Z,97745
2018-03-08T05:59:32.416Z,97744
2018-03-08T06:01:41.561Z,97750
2018-03-08T06:03:52.474Z,97737
2018-03-08T06:05:59.487Z,97753
2018-03-08T06:08:08.194Z,97755
2018-03-08T06:10:16.928Z,97750
2018-03-08T06:12:22.683Z,97764
2018-03-08T06:14:28.599Z,97786
2018-03-08T06:16:33.894Z,97803
2018-03-08T06:18:39.732Z,97787
2018-03-08T06:20:45.570Z,97798
2018-03-08T06:22:52.893Z,97782
2018-03-08T06:24:58.704Z,97797
2018-03-08T06:27:04.484Z,97795
2018-03-08T06:29:10.032Z,97803
2018-03-08T06:31:15.886Z,97822
2018-03-08T06:33:21.779Z,97797
2018-03-08T06:35:27.044Z,97812
2018-03-08T06:37:32.436Z,97815
2018-03-08T06:39:38.087Z,97809
2018-03-08T06:41:43.522Z,97806
2018-03-08T06:43:49.915Z,97817
2018-03-08T06:45:55.493Z,97820
2018-03-08T06:48:01.562Z,97840
2018-03-08T06:50:06.974Z,97845
2018-03-08T06:52:13.656Z,97845
2018-03-08T06:54:19.588Z,97859
2018-03-08T06:56:25.140Z,97847
2018-03-08T06:58:31.038Z,97862
2018-03-08T07:00:37.489Z,97858
2018-03-08T07:02:43.168Z,97871
2018-03-08T07:04:49.998Z,97861
2018-03-08T07:06:55.768Z,97891
2018-03-08T07:09:02.972Z,97885
2018-03-08T07:11:08.952Z,97879
2018-03-08T07:13:15.095Z,97901
2018-03-08T07:15:22.624Z,97902
2018-03-08T07:17:28.385Z,97894
2018-03-08T07:19:35.386Z,97905
2018-03-08T07:21:41.262Z,97903
2018-03-08T07:23:47.824Z,97903
2018-03-08T07:25:54.564Z,97927
2018-03-08T07:27:59.932Z,97929
2018-03-08T07:30:09.545Z,97922
2018-03-08T07:32:15.837Z,97945
2018-03-08T07:34:23.746Z,97927
2018-03-08T07:36:30.125Z,97961
2018-03-08T07:38:36.288Z,97919
2018-03-08T07:40:42.748Z,97936
2018-03-08T07:42:48.176Z,97945
2018-03-08T07:44:54.392Z,97951
2018-03-08T07:47:01.863Z,97936
2018-03-08T07:49:07.168Z,97950
2018-03-08T07:51:12.576Z,97930
2018-03-08T07:53:18.312Z,97927
2018-03-08T07:55:23.846Z,97961
2018-03-08T07:57:29.200Z,97963
2018-03-08T07:59:34.845Z,97950
2018-03-08T08:01:40.261Z,97951
2018-03-08T08:03:50.238Z,97951
2018-03-08T08:07:08.178Z,97944
2018-03-08T08:09:13.708Z,97943
2018-03-08T08:11:19.067Z,97943
2018-03-08T08:13:25.273Z,97941
2018-03-08T08:15:30.681Z,97950
2018-03-08T08:17:36.446Z,97945
2018-03-08T08:19:41.797Z,97946
2018-03-08T08:21:47.304Z,97950
2018-03-08T08:23:53.006Z,97983
2018-03-08T08:25:58.432Z,97957
2018-03-08T08:28:05.240Z,97942
2018-03-08T08:30:11.053Z,97941
2018-03-08T08:32:16.530Z,97933
2018-03-08T08:34:22.525Z,97937
2018-03-08T08:36:28.228Z,97929
2018-03-08T08:38:34.941Z,97937
2018-03-08T08:40:40.435Z,97939
2018-03-08T08:42:46.208Z,97954
2018-03-08T08:44:51.500Z,97939
2018-03-08T08:46:56.914Z,97933
2018-03-08T08:49:03.457Z,97972
2018-03-08T08:51:09.542Z,97924
2018-03-08T08:53:17.050Z,97926
2018-03-08T08:55:23.416Z,97928
2018-03-08T08:57:32.880Z,97953
2018-03-08T08:59:38.289Z,97976
2018-03-08T09:01:45.462Z,97937
2018-03-08T09:03:51.275Z,97942
2018-03-08T09:05:57.488Z,97949
2018-03-08T09:08:04.694Z,97952
2018-03-08T09:10:12.975Z,97962
2018-03-08T09:12:18.194Z,97943
2018-03-08T09:14:25.842Z,97936
2018-03-08T09:16:31.103Z,97929
2018-03-08T09:18:38.691Z,97933
2018-03-08T09:20:45.742Z,97935
2018-03-08T09:22:51.397Z,97931
2018-03-08T09:27:08.346Z,97934
2018-03-08T09:29:14.589Z,97967
2018-03-08T09:31:20.049Z,97966
2018-03-08T09:33:25.346Z,97954
2018-03-08T09:35:30.646Z,97936
2018-03-08T09:37:37.922Z,97957
2018-03-08T09:39:43.649Z,97950
2018-03-08T09:41:48.942Z,97954
2018-03-08T09:43:55.117Z,97976
2018-03-08T09:46:01.849Z,97963
2018-03-08T09:48:07.228Z,97948
2018-03-08T09:50:12.530Z,97922
2018-03-08T09:52:18.771Z,97919
2018-03-08T09:54:24.088Z,97933
2018-03-08T09:56:29.526Z,97972
2018-03-08T09:58:35.121Z,97933
2018-03-08T10:00:40.457Z,97939
2018-03-08T10:02:46.720Z,97957
2018-03-08T10:04:52.893Z,97935
2018-03-08T10:06:58.627Z,97964
2018-03-08T10:09:04.179Z,97940
2018-03-08T10:11:09.708Z,97963
2018-03-08T10:13:15.036Z,98001
2018-03-08T10:15:20.433Z,97980
2018-03-08T10:17:26.254Z,97927
2018-03-08T10:19:32.104Z,97948
2018-03-08T10:21:44.675Z,97971
2018-03-08T10:23:43.089Z,97943
2018-03-08T10:25:48.313Z,97943
2018-03-08T10:27:53.599Z,97948
2018-03-08T10:29:59.867Z,97939
2018-03-08T10:32:09.915Z,97979
2018-03-08T10:34:15.182Z,97947
2018-03-08T10:36:20.769Z,97954
2018-03-08T10:38:26.141Z,97946
2018-03-08T10:44:43.616Z,97920
2018-03-08T10:46:48.805Z,97925
2018-03-08T10:51:00.662Z,97959
2018-03-08T10:53:07.137Z,97926
2018-03-08T10:55:12.348Z,97930
2018-03-08T10:57:17.941Z,97926
2018-03-08T10:59:23.251Z,97915
2018-03-08T11:01:28.758Z,97915
2018-03-08T11:03:38.235Z,97919
2018-03-08T11:05:47.804Z,97934
2018-03-08T11:08:02.213Z,97945
2018-03-08T11:10:08.711Z,97950
2018-03-08T11:12:14.040Z,97924
2018-03-08T11:14:19.295Z,97904
2018-03-08T11:16:25.531Z,97966
2018-03-08T11:18:31.285Z,97938
2018-03-08T11:20:36.621Z,97937
2018-03-08T11:22:42.562Z,97955
2018-03-08T11:24:48.563Z,97920
2018-03-08T11:26:53.888Z,97904
2018-03-08T11:28:59.968Z,97908
2018-03-08T11:31:08.746Z,97893
2018-03-08T11:33:14.085Z,97879
2018-03-08T11:35:19.417Z,97950
2018-03-08T11:37:24.901Z,97919
2018-03-08T11:39:31.120Z,97904
2018-03-08T11:41:36.656Z,97952
2018-03-08T11:43:42.853Z,97914
2018-03-08T11:45:48.580Z,97889
2018-03-08T11:47:54.580Z,97880
2018-03-08T11:50:01.495Z,97872
2018-03-08T11:52:06.737Z,97868
2018-03-08T11:54:16.299Z,97873
2018-03-08T11:56:21.782Z,97896
2018-03-08T11:58:27.603Z,97887
2018-03-08T12:00:34.096Z,97893
2018-03-08T12:02:41.116Z,97899
2018-03-08T12:04:46.614Z,97879
2018-03-08T12:06:51.903Z,97893
2018-03-08T12:08:57.764Z,97911
2018-03-08T12:11:05.664Z,97900
2018-03-08T12:13:11.248Z,97900
2018-03-08T12:16:42.269Z,97887
2018-03-08T12:18:47.574Z,97916
2018-03-08T12:20:53.572Z,97923
2018-03-08T12:22:59.089Z,97882
2018-03-08T12:25:07.099Z,97873
2018-03-08T12:27:12.653Z,97920
2018-03-08T12:29:18.043Z,97885
2018-03-08T12:31:23.343Z,97902
2018-03-08T12:33:29.085Z,97965
2018-03-08T12:35:34.433Z,97905
2018-03-08T12:37:39.784Z,97906
2018-03-08T12:39:47.331Z,97873
2018-03-08T12:41:52.694Z,97879
2018-03-08T12:43:58.128Z,97918
2018-03-08T12:46:05.394Z,97886
2018-03-08T12:48:10.736Z,97875
2018-03-08T12:50:16.176Z,97892
2018-03-08T12:52:21.734Z,97866
2018-03-08T12:54:27.478Z,97876
2018-03-08T12:56:32.714Z,97854
2018-03-08T12:58:38.326Z,97860
2018-03-08T13:00:43.659Z,97869
2018-03-08T13:02:48.960Z,97868
2018-03-08T13:04:54.485Z,97882
2018-03-08T13:07:01.687Z,97849
2018-03-08T13:09:07.262Z,97829
2018-03-08T13:11:13.038Z,97823
2018-03-08T13:13:18.619Z,97820
2018-03-08T13:15:24.081Z,97837
2018-03-08T13:17:29.686Z,97830
2018-03-08T13:19:35.015Z,97834
2018-03-08T13:21:40.289Z,97825
2018-03-08T13:23:45.871Z,97819
2018-03-08T13:25:52.231Z,97848
2018-03-08T13:27:57.645Z,97848
2018-03-08T13:30:05.437Z,97845
2018-03-08T13:32:11.029Z,97820
2018-03-08T13:34:17.368Z,97830
2018-03-08T13:36:23.053Z,97832
2018-03-08T13:38:28.491Z,97862
2018-03-08T13:40:33.981Z,97821
2018-03-08T13:42:40.077Z,97818
2018-03-08T13:44:45.417Z,97818
2018-03-08T13:46:50.731Z,97872
2018-03-08T13:48:56.572Z,97821
2018-03-08T13:51:05.941Z,97863
2018-03-08T13:53:11.217Z,97806
2018-03-08T13:55:17.513Z,97816
2018-03-08T13:57:22.804Z,97815
2018-03-08T13:59:28.115Z,97813
2018-03-08T14:01:33.912Z,97824
2018-03-08T14:03:39.298Z,97808
2018-03-08T14:05:44.676Z,97824
2018-03-08T14:07:50.307Z,97815
2018-03-08T14:09:58.609Z,97812
2018-03-08T14:12:06.315Z,97798
2018-03-08T14:14:12.165Z,97800
2018-03-08T14:16:17.977Z,97806
2018-03-08T14:18:28.340Z,97809
2018-03-08T14:20:39.516Z,97784
2018-03-08T14:22:48.545Z,97782
2018-03-08T14:24:53.823Z,97777
2018-03-08T14:26:59.423Z,97779
2018-03-08T14:29:05.874Z,97782
2018-03-08T14:31:11.168Z,97783
2018-03-08T14:33:16.771Z,97783
2018-03-08T14:35:22.084Z,97779
2018-03-08T14:37:27.400Z,97767
2018-03-08T14:39:33.178Z,97766
2018-03-08T14:41:39.054Z,97797
2018-03-08T14:43:44.542Z,97776
2018-03-08T14:45:50.520Z,97748
2018-03-08T14:47:56.156Z,97746
2018-03-08T14:50:03.406Z,97742
2018-03-08T14:52:09.215Z,97743
2018-03-08T14:54:14.518Z,97741
2018-03-08T14:56:22.910Z,97722
2018-03-08T14:58:29.096Z,97753
2018-03-08T15:00:34.637Z,97754
2018-03-08T15:02:39.989Z,97750
2018-03-08T15:04:45.768Z,97782
2018-03-08T15:06:51.138Z,97744
2018-03-08T15:08:56.409Z,97753
2018-03-08T15:11:05.154Z,97727
2018-03-08T15:13:10.500Z,97699
2018-03-08T15:15:15.732Z,97720
2018-03-08T15:17:21.453Z,97721
2018-03-08T15:19:26.773Z,97720
2018-03-08T15:21:32.044Z,97716
2018-03-08T15:23:37.636Z,97718
2018-03-08T15:25:43.455Z,97723
2018-03-08T15:27:49.462Z,97723
2018-03-08T15:29:55.209Z,97711
2018-03-08T15:32:01.272Z,97708
2018-03-08T15:34:07.426Z,97714
2018-03-08T15:36:13.165Z,97738
2018-03-08T15:38:23.080Z,97727
2018-03-08T15:40:29.819Z,97710
2018-03-08T15:42:35.737Z,97699
2018-03-08T15:44:41.090Z,97697
2018-03-08T15:46:46.473Z,97697
2018-03-08T15:48:52.114Z,97699
2018-03-08T15:50:57.441Z,97700
2018-03-08T15:53:02.814Z,97700
2018-03-08T15:55:08.543Z,97707
2018-03-08T15:57:13.846Z,97696
2018-03-08T15:59:19.155Z,97687
2018-03-08T16:01:24.776Z,97694
2018-03-08T16:03:30.679Z,97697
2018-03-08T16:05:36.168Z,97729
2018-03-08T16:07:42.641Z,97693
2018-03-08T16:09:57.188Z,97708
2018-03-08T16:12:05.482Z,97714
2018-03-08T16:14:11.868Z,97691
2018-03-08T16:16:18.221Z,97699
2018-03-08T16:18:24.224Z,97703
2018-03-08T16:20:30.056Z,97700
2018-03-08T16:22:35.770Z,97691
2018-03-08T16:24:41.528Z,97704
2018-03-08T16:26:47.240Z,97687
2018-03-08T16:28:57.019Z,97677
2018-03-08T16:31:03.722Z,97675
2018-03-08T16:33:09.379Z,97679
2018-03-08T16:35:14.864Z,97686
2018-03-08T16:37:20.192Z,97697
2018-03-08T16:39:26.819Z,97685
2018-03-08T16:41:33.025Z,97678
2018-03-08T16:43:38.783Z,97667
2018-03-08T16:45:48.924Z,97675
2018-03-08T16:47:54.510Z,97672
2018-03-08T16:50:00.304Z,97668
2018-03-08T16:52:06.309Z,97663
2018-03-08T16:54:11.927Z,97658
2018-03-08T16:56:17.437Z,97655
2018-03-08T16:58:23.515Z,97658
2018-03-08T17:00:29.745Z,97650
2018-03-08T17:02:36.276Z,97648
2018-03-08T17:04:42.552Z,97652
2018-03-08T17:06:48.078Z,97656
2018-03-08T17:08:53.920Z,97634
2018-03-08T17:11:01.308Z,97641
2018-03-08T17:13:06.822Z,97634
2018-03-08T17:15:14.118Z,97639
2018-03-08T17:17:23.465Z,97642
2018-03-08T17:19:29.040Z,97633
2018-03-08T17:21:36.913Z,97633
2018-03-08T17:23:42.737Z,97633
2018-03-08T17:25:48.591Z,97634
2018-03-08T17:27:54.713Z,97627
2018-03-08T17:30:00.928Z,97624
2018-03-08T17:32:06.456Z,97609
2018-03-08T17:34:13.160Z,97617
2018-03-08T17:36:21.331Z,97615
2018-03-08T17:38:29.598Z,97618
2018-03-08T17:40:37.334Z,97622
2018-03-08T17:42:43.234Z,97635
2018-03-08T17:44:49.866Z,97632
2018-03-08T17:46:59.434Z,97628
2018-03-08T17:49:05.318Z,97635
2018-03-08T17:51:10.792Z,97638
2018-03-08T17:53:16.302Z,97626
2018-03-08T17:55:23.387Z,97625
2018-03-08T17:57:29.500Z,97619
2018-03-08T17:59:36.563Z,97621
2018-03-08T18:01:42.456Z,97618
2018-03-08T18:03:49.073Z,97614
2018-03-08T18:05:54.504Z,97597
2018-03-08T18:08:00.850Z,97584
2018-03-08T18:10:07.992Z,97588
2018-03-08T18:12:13.844Z,97591
2018-03-08T18:14:21.035Z,97591
2018-03-08T18:16:26.679Z,97588
2018-03-08T18:18:33.816Z,97590
2018-03-08T18:20:39.663Z,97586
2018-03-08T18:22:45.311Z,97586
2018-03-08T18:24:51.839Z,97581
2018-03-08T18:26:57.561Z,97582
2018-03-08T18:29:11.369Z,97580
2018-03-08T18:31:17.241Z,97562
2018-03-08T18:33:23.090Z,97570
2018-03-08T18:35:28.665Z,97572
2018-03-08T18:39:43.909Z,97574
2018-03-08T18:41:51.468Z,97586
2018-03-08T18:43:57.710Z,97568
2018-03-08T18:46:07.508Z,97545
2018-03-08T18:48:14.824Z,97558
2018-03-08T18:50:20.723Z,97561
2018-03-08T18:52:26.648Z,97550
2018-03-08T18:54:32.060Z,97523
2018-03-08T18:56:38.178Z,97531
2018-03-08T18:58:43.801Z,97550
2018-03-08T19:00:49.253Z,97519
2018-03-08T19:02:55.038Z,97533
2018-03-08T19:05:01.851Z,97519
2018-03-08T19:07:07.592Z,97511
2018-03-08T19:09:13.153Z,97505
2018-03-08T19:11:18.964Z,97514
2018-03-08T19:13:24.471Z,97505
2018-03-08T19:15:29.915Z,97505
2018-03-08T19:17:35.814Z,97491
2018-03-08T19:19:41.268Z,97483
2018-03-08T19:21:46.689Z,97477
2018-03-08T19:23:52.248Z,97455
2018-03-08T19:25:57.820Z,97457
2018-03-08T19:28:03.226Z,97455
2018-03-08T19:30:09.407Z,97452
2018-03-08T19:32:15.736Z,97442
2018-03-08T19:34:20.992Z,97446
2018-03-08T19:36:26.668Z,97451
2018-03-08T19:38:32.621Z,97460
2018-03-08T19:40:38.317Z,97448
2018-03-08T19:42:44.364Z,97462
2018-03-08T19:44:49.946Z,97473
2018-03-08T19:46:55.472Z,97461
2018-03-08T19:49:01.100Z,97477
2018-03-08T19:51:07.309Z,97476
2018-03-08T19:53:13.560Z,97481
2018-03-08T19:55:19.174Z,97481
2018-03-08T19:57:27.274Z,97439
2018-03-08T19:59:32.699Z,97488
2018-03-08T20:01:38.995Z,97486
2018-03-08T20:03:44.468Z,97528
2018-03-08T20:05:49.749Z,97518
2018-03-08T20:07:55.496Z,97534
2018-03-08T20:10:05.966Z,97572
2018-03-08T20:12:12.162Z,97605
2018-03-08T20:14:20.536Z,97670
2018-03-08T20:16:29.321Z,97686
2018-03-08T20:18:36.244Z,97708
2018-03-08T20:20:42.663Z,97875
2018-03-08T20:22:48.051Z,97783
2018-03-08T20:24:53.331Z,97807
2018-03-08T20:26:59.394Z,97773
2018-03-08T20:29:04.840Z,97836
2018-03-08T20:31:10.116Z,97798
2018-03-08T20:33:15.677Z,97789
2018-03-08T20:35:21.550Z,97782
2018-03-08T20:37:26.921Z,97787
2018-03-08T20:39:32.643Z,97775
2018-03-08T20:41:38.813Z,97768
2018-03-08T20:43:44.434Z,97767
2018-03-08T20:45:50.736Z,97703
2018-03-08T20:47:56.081Z,97691
2018-03-08T20:50:01.445Z,97697
2018-03-08T20:52:07.185Z,97670
2018-03-08T20:54:12.489Z,97699
2018-03-08T20:56:17.879Z,97716
2018-03-08T20:58:23.506Z,97735
2018-03-08T21:00:28.804Z,97699
2018-03-08T21:02:34.202Z,97719
2018-03-08T21:04:39.777Z,97763
2018-03-08T21:06:45.037Z,97741
2018-03-08T21:08:50.599Z,97778
2018-03-08T21:10:56.956Z,97748
2018-03-08T21:13:04.239Z,97739
2018-03-08T21:15:09.884Z,97769
2018-03-08T21:17:15.648Z,97787
2018-03-08T21:19:21.078Z,97767
2018-03-08T21:21:26.573Z,97770
2018-03-08T21:23:36.931Z,97790
2018-03-08T21:25:42.468Z,97794
2018-03-08T21:27:47.921Z,97782
2018-03-08T21:29:59.484Z,97786
2018-03-08T21:32:05.357Z,97791
2018-03-08T21:34:10.739Z,97812
2018-03-08T21:36:16.411Z,97769
2018-03-08T21:38:21.697Z,97798
2018-03-08T21:40:28.153Z,97783
2018-03-08T21:42:33.704Z,97763
2018-03-08T21:44:39.031Z,97781
2018-03-08T21:46:44.469Z,97791
2018-03-08T21:48:50.107Z,97800
2018-03-08T21:50:55.507Z,97817
2018-03-08T21:53:00.803Z,97803
2018-03-08T21:55:09.288Z,97793
2018-03-08T21:57:14.555Z,97823
2018-03-08T21:59:19.914Z,97811
2018-03-08T22:01:25.469Z,97808
2018-03-08T22:03:30.807Z,97802
2018-03-08T22:05:36.650Z,97815
2018-03-08T22:07:42.233Z,97813
2018-03-08T22:09:47.779Z,97797
2018-03-08T22:11:53.281Z,97800
2018-03-08T22:14:01.829Z,97809
2018-03-08T22:16:07.815Z,97820
2018-03-08T22:18:13.120Z,97812
2018-03-08T22:20:19.144Z,97826
2018-03-08T22:22:25.693Z,97848
2018-03-08T22:24:32.551Z,97836
2018-03-08T22:26:38.128Z,97825
2018-03-08T22:28:43.390Z,97819
2018-03-08T22:30:50.102Z,97842
2018-03-08T22:32:55.657Z,97834
2018-03-08T22:35:02.176Z,97838
2018-03-08T22:37:07.550Z,97838
2018-03-08T22:39:13.225Z,97851
2018-03-08T22:41:18.495Z,97855
2018-03-08T22:43:26.706Z,97847
2018-03-08T22:45:33.581Z,97889
2018-03-08T22:47:38.812Z,97872
2018-03-08T22:49:44.532Z,97861
2018-03-08T22:51:50.030Z,97864
2018-03-08T22:53:56.300Z,97868
2018-03-08T22:56:03.605Z,97884
2018-03-08T22:58:09.238Z,97852
2018-03-08T23:00:14.595Z,97870
2018-03-08T23:02:23.817Z,97865
2018-03-08T23:04:29.499Z,97889
2018-03-08T23:06:35.560Z,97894
2018-03-08T23:08:40.883Z,97868
2018-03-08T23:10:46.670Z,97896
2018-03-08T23:12:52.017Z,97873
2018-03-08T23:14:57.308Z,97888
2018-03-08T23:17:05.163Z,97874
2018-03-08T23:19:10.464Z,97886
2018-03-08T23:21:15.976Z,97878
2018-03-08T23:23:22.058Z,97883
2018-03-08T23:25:27.425Z,97894
2018-03-08T23:27:32.849Z,97890
2018-03-08T23:29:38.691Z,97889
2018-03-08T23:31:44.764Z,97895
2018-03-08T23:33:50.140Z,97895
2018-03-08T23:35:56.525Z,97900
2018-03-08T23:38:03.544Z,97904
2018-03-08T23:40:09.619Z,97909
2018-03-08T23:42:15.956Z,97909
2018-03-08T23:44:21.928Z,97920
2018-03-08T23:46:27.888Z,97918
2018-03-08T23:48:33.576Z,97919
2018-03-08T23:50:38.876Z,97913
2018-03-08T23:52:44.431Z,97921
2018-03-08T23:54:50.486Z,97924
2018-03-08T23:56:55.926Z,97920
2018-03-08T23:59:03.606Z,97921
